createdAt,value
2022-08-20T00:01:02.102Z,4
2022-08-20T00:01:59.280Z,3
2022-08-20T00:02:59.193Z,4
2022-08-20T00:03:59.149Z,4
2022-08-20T00:04:59.142Z,4
2022-08-20T00:05:59.183Z,4
2022-08-20T00:06:59.254Z,4
2022-08-20T00:07:59.206Z,4
2022-08-20T00:08:59.194Z,4
2022-08-20T00:09:59.223Z,4
2022-08-20T00:10:59.212Z,4
2022-08-20T00:11:59.128Z,4
2022-08-20T00:12:59.250Z,3
2022-08-20T00:13:59.138Z,4
2022-08-20T00:14:59.247Z,4
2022-08-20T00:15:59.196Z,3
2022-08-20T00:17:00.045Z,3
2022-08-20T00:17:59.206Z,4
2022-08-20T00:18:59.300Z,4
2022-08-20T00:19:59.177Z,4
2022-08-20T00:20:59.192Z,3
2022-08-20T00:21:59.295Z,4
2022-08-20T00:22:59.204Z,3
2022-08-20T00:23:59.134Z,3
2022-08-20T00:24:59.128Z,3
2022-08-20T00:25:59.211Z,3
2022-08-20T00:26:59.218Z,3
2022-08-20T00:27:59.234Z,3
2022-08-20T00:28:59.234Z,4
2022-08-20T00:29:59.240Z,3
2022-08-20T00:30:59.134Z,3
2022-08-20T00:31:59.151Z,3
2022-08-20T00:32:59.199Z,3
2022-08-20T00:33:59.148Z,3
2022-08-20T00:34:59.173Z,3
2022-08-20T00:35:59.287Z,3
2022-08-20T00:36:59.186Z,3
2022-08-20T00:38:00.850Z,3
2022-08-20T00:38:59.194Z,3
2022-08-20T00:39:59.399Z,4
2022-08-20T00:40:59.211Z,4
2022-08-20T00:41:59.214Z,4
2022-08-20T00:42:59.197Z,3
2022-08-20T00:43:59.185Z,3
2022-08-20T00:44:59.241Z,3
2022-08-20T00:45:59.141Z,4
2022-08-20T00:46:59.252Z,4
2022-08-20T00:47:59.280Z,3
2022-08-20T00:48:59.252Z,4
2022-08-20T00:49:59.256Z,4
2022-08-20T00:50:59.272Z,4
2022-08-20T00:51:59.142Z,4
2022-08-20T00:52:59.212Z,4
2022-08-20T00:53:59.141Z,4
2022-08-20T00:54:59.159Z,4
2022-08-20T00:55:59.193Z,4
2022-08-20T00:56:59.204Z,4
2022-08-20T00:58:01.292Z,4
2022-08-20T00:58:59.213Z,5
2022-08-20T00:59:59.223Z,4
2022-08-20T01:00:59.331Z,4
2022-08-20T01:01:59.188Z,5
2022-08-20T01:02:59.296Z,5
2022-08-20T01:03:59.205Z,5
2022-08-20T01:04:59.255Z,5
2022-08-20T01:05:59.164Z,5
2022-08-20T01:06:59.162Z,5
2022-08-20T01:07:59.295Z,5
2022-08-20T01:08:59.149Z,5
2022-08-20T01:09:59.574Z,6
2022-08-20T01:10:59.201Z,6
2022-08-20T01:11:59.312Z,6
2022-08-20T01:12:59.740Z,6
2022-08-20T01:13:59.141Z,6
2022-08-20T01:14:59.220Z,6
2022-08-20T01:15:59.232Z,6
2022-08-20T01:16:59.390Z,6
2022-08-20T01:17:59.477Z,6
2022-08-20T01:18:59.249Z,6
2022-08-20T01:19:59.153Z,6
2022-08-20T01:20:59.135Z,6
2022-08-20T01:21:59.167Z,7
2022-08-20T01:22:59.174Z,7
2022-08-20T01:23:59.151Z,7
2022-08-20T01:24:59.215Z,7
2022-08-20T01:25:59.203Z,7
2022-08-20T01:26:59.153Z,7
2022-08-20T01:27:59.362Z,7
2022-08-20T01:28:59.189Z,7
2022-08-20T01:29:59.157Z,7
2022-08-20T01:30:59.159Z,7
2022-08-20T01:31:59.212Z,7
2022-08-20T01:32:59.250Z,8
2022-08-20T01:33:59.150Z,7
2022-08-20T01:34:59.156Z,9
2022-08-20T01:35:59.151Z,8
2022-08-20T01:36:59.168Z,9
2022-08-20T01:37:59.156Z,9
2022-08-20T01:38:59.225Z,9
2022-08-20T01:39:59.279Z,9
2022-08-20T01:40:59.141Z,10
2022-08-20T01:41:59.162Z,11
2022-08-20T01:42:59.804Z,10
2022-08-20T01:43:59.146Z,11
2022-08-20T01:44:59.149Z,12
2022-08-20T01:45:59.202Z,12
2022-08-20T01:46:59.195Z,12
2022-08-20T01:47:59.190Z,13
2022-08-20T01:48:59.149Z,13
2022-08-20T01:49:59.202Z,13
2022-08-20T01:50:59.157Z,13
2022-08-20T01:51:59.152Z,14
2022-08-20T01:52:59.248Z,14
2022-08-20T01:53:59.192Z,14
2022-08-20T01:54:59.141Z,14
2022-08-20T01:55:59.165Z,14
2022-08-20T01:56:59.149Z,14
2022-08-20T01:57:59.174Z,14
2022-08-20T01:58:59.322Z,14
2022-08-20T01:59:59.201Z,14
2022-08-20T02:00:59.312Z,14
2022-08-20T02:01:59.172Z,13
2022-08-20T02:02:59.204Z,14
2022-08-20T02:03:59.154Z,14
2022-08-20T02:04:59.153Z,14
2022-08-20T02:05:59.156Z,15
2022-08-20T02:06:59.214Z,14
2022-08-20T02:07:59.216Z,15
2022-08-20T02:08:59.152Z,14
2022-08-20T02:09:59.155Z,14
2022-08-20T02:10:59.177Z,14
2022-08-20T02:11:59.175Z,14
2022-08-20T02:12:59.182Z,15
2022-08-20T02:13:59.196Z,15
2022-08-20T02:14:59.201Z,15
2022-08-20T02:15:59.143Z,15
2022-08-20T02:16:59.152Z,15
2022-08-20T02:17:59.212Z,15
2022-08-20T02:18:59.146Z,14
2022-08-20T02:19:59.155Z,16
2022-08-20T02:20:59.314Z,14
2022-08-20T02:21:59.207Z,15
2022-08-20T02:22:59.184Z,15
2022-08-20T02:23:59.189Z,15
2022-08-20T02:24:59.161Z,15
2022-08-20T02:25:59.165Z,15
2022-08-20T02:26:59.152Z,15
2022-08-20T02:27:59.339Z,16
2022-08-20T02:28:59.301Z,16
2022-08-20T02:29:59.159Z,15
2022-08-20T02:30:59.164Z,16
2022-08-20T02:32:24.773Z,16
2022-08-20T02:32:59.192Z,16
2022-08-20T02:34:21.743Z,16
2022-08-20T02:34:59.209Z,15
2022-08-20T02:35:59.206Z,16
2022-08-20T02:36:59.474Z,16
2022-08-20T02:37:59.173Z,16
2022-08-20T02:38:59.180Z,16
2022-08-20T02:39:59.250Z,15
2022-08-20T02:40:59.157Z,15
2022-08-20T02:41:59.202Z,15
2022-08-20T02:42:59.234Z,15
2022-08-20T02:43:59.164Z,15
2022-08-20T02:44:59.159Z,15
2022-08-20T02:45:59.171Z,15
2022-08-20T02:46:59.153Z,15
2022-08-20T02:47:59.481Z,15
2022-08-20T02:48:59.205Z,15
2022-08-20T02:49:59.220Z,15
2022-08-20T02:50:59.173Z,15
2022-08-20T02:51:59.155Z,15
2022-08-20T02:52:59.259Z,15
2022-08-20T02:53:59.278Z,16
2022-08-20T02:54:59.151Z,15
2022-08-20T02:55:59.213Z,15
2022-08-20T02:56:59.263Z,15
2022-08-20T02:57:59.578Z,16
2022-08-20T02:58:59.274Z,16
2022-08-20T02:59:59.186Z,15
2022-08-20T03:00:59.362Z,16
2022-08-20T03:02:00.800Z,16
2022-08-20T03:02:59.319Z,15
2022-08-20T03:03:59.306Z,16
2022-08-20T03:04:59.274Z,15
2022-08-20T03:05:59.295Z,15
2022-08-20T03:06:59.259Z,16
2022-08-20T03:07:59.335Z,16
2022-08-20T03:08:59.420Z,15
2022-08-20T03:09:59.220Z,16
2022-08-20T03:10:59.370Z,16
2022-08-20T03:11:59.386Z,16
2022-08-20T03:12:59.614Z,16
2022-08-20T03:13:59.523Z,17
2022-08-20T03:14:59.164Z,16
2022-08-20T03:15:59.349Z,15
2022-08-20T03:16:59.287Z,16
2022-08-20T03:17:59.321Z,15
2022-08-20T03:18:59.191Z,15
2022-08-20T03:19:59.207Z,16
2022-08-20T03:20:59.207Z,16
2022-08-20T03:21:59.174Z,15
2022-08-20T03:22:59.189Z,15
2022-08-20T03:23:59.224Z,16
2022-08-20T03:24:59.208Z,15
2022-08-20T03:25:59.273Z,14
2022-08-20T03:26:59.250Z,14
2022-08-20T03:27:59.577Z,15
2022-08-20T03:28:59.257Z,15
2022-08-20T03:29:59.266Z,14
2022-08-20T03:30:59.272Z,14
2022-08-20T03:31:59.273Z,14
2022-08-20T03:32:59.190Z,14
2022-08-20T03:33:59.193Z,13
2022-08-20T03:34:59.198Z,13
2022-08-20T03:35:59.172Z,14
2022-08-20T03:36:59.173Z,13
2022-08-20T03:37:59.334Z,13
2022-08-20T03:38:59.320Z,13
2022-08-20T03:39:59.257Z,13
2022-08-20T03:40:59.249Z,12
2022-08-20T03:41:59.238Z,13
2022-08-20T03:42:59.271Z,13
2022-08-20T03:43:59.260Z,13
2022-08-20T03:44:59.514Z,13
2022-08-20T03:45:59.268Z,14
2022-08-20T03:46:59.273Z,14
2022-08-20T03:47:59.199Z,13
2022-08-20T03:49:00.623Z,14
2022-08-20T03:49:59.166Z,14
2022-08-20T03:50:59.197Z,14
2022-08-20T03:51:59.225Z,13
2022-08-20T03:52:59.337Z,14
2022-08-20T03:53:59.211Z,13
2022-08-20T03:54:59.219Z,13
2022-08-20T03:56:02.200Z,13
2022-08-20T03:56:59.235Z,12
2022-08-20T03:57:59.204Z,13
2022-08-20T03:58:59.257Z,11
2022-08-20T03:59:59.292Z,13
2022-08-20T04:01:04.277Z,11
2022-08-20T04:01:59.176Z,12
2022-08-20T04:02:59.304Z,11
2022-08-20T04:03:59.167Z,11
2022-08-20T04:04:59.286Z,11
2022-08-20T04:05:59.216Z,11
2022-08-20T04:06:59.300Z,11
2022-08-20T04:08:00.189Z,11
2022-08-20T04:08:59.199Z,10
2022-08-20T04:09:59.217Z,11
2022-08-20T04:10:59.176Z,9
2022-08-20T04:11:59.220Z,10
2022-08-20T04:12:59.334Z,9
2022-08-20T04:13:59.222Z,10
2022-08-20T04:14:59.251Z,9
2022-08-20T04:15:59.255Z,8
2022-08-20T04:16:59.179Z,8
2022-08-20T04:17:59.211Z,9
2022-08-20T04:19:02.309Z,9
2022-08-20T04:19:59.208Z,9
2022-08-20T04:20:59.285Z,10
2022-08-20T04:21:59.170Z,9
2022-08-20T04:22:59.818Z,10
2022-08-20T04:23:59.313Z,9
2022-08-20T04:24:59.556Z,9
2022-08-20T04:25:59.169Z,9
2022-08-20T04:26:59.225Z,9
2022-08-20T04:27:59.332Z,10
2022-08-20T04:28:59.236Z,9
2022-08-20T04:29:59.245Z,9
2022-08-20T04:30:59.347Z,7
2022-08-20T04:31:59.260Z,8
2022-08-20T04:32:59.717Z,9
2022-08-20T04:33:59.598Z,9
2022-08-20T04:34:59.285Z,8
2022-08-20T04:35:59.280Z,7
2022-08-20T04:36:59.188Z,9
2022-08-20T04:37:59.198Z,8
2022-08-20T04:38:59.194Z,8
2022-08-20T04:39:59.248Z,9
2022-08-20T04:40:59.315Z,9
2022-08-20T04:41:59.327Z,8
2022-08-20T04:42:59.234Z,7
2022-08-20T04:43:59.226Z,8
2022-08-20T04:44:59.189Z,7
2022-08-20T04:45:59.239Z,8
2022-08-20T04:46:59.279Z,8
2022-08-20T04:47:59.276Z,7
2022-08-20T04:48:59.218Z,8
2022-08-20T04:49:59.180Z,8
2022-08-20T04:50:59.173Z,8
2022-08-20T04:51:59.284Z,8
2022-08-20T04:52:59.305Z,8
2022-08-20T04:53:59.209Z,7
2022-08-20T04:54:59.296Z,8
2022-08-20T04:55:59.304Z,9
2022-08-20T04:56:59.206Z,9
2022-08-20T04:57:59.191Z,9
2022-08-20T04:58:59.207Z,8
2022-08-20T04:59:59.658Z,8
2022-08-20T05:01:01.099Z,8
2022-08-20T05:01:59.238Z,8
2022-08-20T05:02:59.274Z,8
2022-08-20T05:03:59.188Z,9
2022-08-20T05:04:59.262Z,8
2022-08-20T05:05:59.269Z,9
2022-08-20T05:06:59.275Z,7
2022-08-20T05:07:59.296Z,7
2022-08-20T05:08:59.242Z,8
2022-08-20T05:09:59.301Z,9
2022-08-20T05:11:16.288Z,8
2022-08-20T05:11:59.220Z,7
2022-08-20T05:12:59.227Z,6
2022-08-20T05:13:59.196Z,5
2022-08-20T05:14:59.199Z,6
2022-08-20T05:15:59.219Z,6
2022-08-20T05:16:59.223Z,6
2022-08-20T05:17:59.263Z,5
2022-08-20T05:18:59.186Z,6
2022-08-20T05:19:59.266Z,5
2022-08-20T05:20:59.259Z,6
2022-08-20T05:21:59.200Z,5
2022-08-20T05:22:59.290Z,6
2022-08-20T05:23:59.297Z,8
2022-08-20T05:24:59.294Z,8
2022-08-20T05:25:59.301Z,5
2022-08-20T05:26:59.188Z,6
2022-08-20T05:27:59.262Z,5
2022-08-20T05:28:59.623Z,7
2022-08-20T05:29:59.320Z,7
2022-08-20T05:30:59.330Z,7
2022-08-20T05:31:59.189Z,5
2022-08-20T05:32:59.252Z,6
2022-08-20T05:33:59.263Z,7
2022-08-20T05:34:59.257Z,8
2022-08-20T05:35:59.251Z,5
2022-08-20T05:36:59.266Z,6
2022-08-20T05:37:59.298Z,7
2022-08-20T05:38:59.192Z,8
2022-08-20T05:39:59.243Z,7
2022-08-20T05:40:59.208Z,8
2022-08-20T05:41:59.301Z,8
2022-08-20T05:42:59.210Z,9
2022-08-20T05:43:59.305Z,9
2022-08-20T05:44:59.229Z,10
2022-08-20T05:45:59.217Z,10
2022-08-20T05:46:59.222Z,10
2022-08-20T05:47:59.449Z,11
2022-08-20T05:48:59.494Z,10
2022-08-20T05:49:59.238Z,11
2022-08-20T05:50:59.253Z,10
2022-08-20T05:51:59.249Z,8
2022-08-20T05:52:59.220Z,8
2022-08-20T05:53:59.882Z,8
2022-08-20T05:54:59.279Z,8
2022-08-20T05:55:59.281Z,9
2022-08-20T05:56:59.291Z,9
2022-08-20T05:57:59.307Z,9
2022-08-20T05:58:59.308Z,10
2022-08-20T05:59:59.205Z,10
2022-08-20T06:00:59.262Z,10
2022-08-20T06:01:59.189Z,10
2022-08-20T06:02:59.468Z,10
2022-08-20T06:03:59.216Z,8
2022-08-20T06:04:59.353Z,10
2022-08-20T06:05:59.346Z,10
2022-08-20T06:06:59.202Z,11
2022-08-20T06:08:07.518Z,11
2022-08-20T06:08:59.261Z,10
2022-08-20T06:09:59.281Z,10
2022-08-20T06:10:59.275Z,12
2022-08-20T06:11:59.510Z,12
2022-08-20T06:12:59.308Z,12
2022-08-20T06:13:59.294Z,13
2022-08-20T06:15:04.346Z,14
2022-08-20T06:15:59.221Z,13
2022-08-20T06:16:59.268Z,14
2022-08-20T06:17:59.460Z,14
2022-08-20T06:18:59.898Z,15
2022-08-20T06:19:59.234Z,14
2022-08-20T06:20:59.292Z,15
2022-08-20T06:21:59.242Z,16
2022-08-20T06:22:59.278Z,16
2022-08-20T06:24:01.349Z,16
2022-08-20T06:24:59.262Z,15
2022-08-20T06:25:59.267Z,15
2022-08-20T06:26:59.280Z,15
2022-08-20T06:27:59.201Z,16
2022-08-20T06:28:59.222Z,16
2022-08-20T06:29:59.295Z,15
2022-08-20T06:30:59.200Z,15
2022-08-20T06:31:59.310Z,15
2022-08-20T06:32:59.341Z,16
2022-08-20T06:33:59.269Z,16
2022-08-20T06:34:59.200Z,15
2022-08-20T06:35:59.229Z,18
2022-08-20T06:36:59.346Z,18
2022-08-20T06:37:59.260Z,25
2022-08-20T06:38:59.239Z,26
2022-08-20T06:39:59.404Z,25
2022-08-20T06:40:59.236Z,26
2022-08-20T06:41:59.363Z,28
2022-08-20T06:42:59.291Z,28
2022-08-20T06:43:59.285Z,30
2022-08-20T06:44:59.288Z,30
2022-08-20T06:45:59.294Z,32
2022-08-20T06:46:59.268Z,31
2022-08-20T06:47:59.502Z,33
2022-08-20T06:48:59.240Z,32
2022-08-20T06:49:59.195Z,32
2022-08-20T06:50:59.226Z,34
2022-08-20T06:51:59.216Z,34
2022-08-20T06:52:59.215Z,34
2022-08-20T06:53:59.256Z,35
2022-08-20T06:54:59.356Z,35
2022-08-20T06:55:59.264Z,36
2022-08-20T06:56:59.259Z,37
2022-08-20T06:57:59.296Z,36
2022-08-20T06:58:59.205Z,37
2022-08-20T06:59:59.289Z,36
2022-08-20T07:01:02.238Z,36
2022-08-20T07:01:59.252Z,37
2022-08-20T07:02:59.332Z,36
2022-08-20T07:03:59.219Z,36
2022-08-20T07:04:59.233Z,35
2022-08-20T07:05:59.192Z,36
2022-08-20T07:06:59.204Z,37
2022-08-20T07:07:59.339Z,36
2022-08-20T07:08:59.341Z,36
2022-08-20T07:09:59.253Z,35
2022-08-20T07:10:59.287Z,35
2022-08-20T07:11:59.363Z,35
2022-08-20T07:12:59.271Z,35
2022-08-20T07:13:59.310Z,34
2022-08-20T07:14:59.247Z,36
2022-08-20T07:15:59.419Z,35
2022-08-20T07:16:59.226Z,35
2022-08-20T07:18:01.369Z,35
2022-08-20T07:18:59.327Z,35
2022-08-20T07:19:59.204Z,35
2022-08-20T07:20:59.315Z,34
2022-08-20T07:21:59.322Z,34
2022-08-20T07:22:59.342Z,34
2022-08-20T07:23:59.249Z,32
2022-08-20T07:24:59.198Z,29
2022-08-20T07:25:59.221Z,29
2022-08-20T07:26:59.206Z,28
2022-08-20T07:27:59.403Z,27
2022-08-20T07:28:59.302Z,28
2022-08-20T07:29:59.257Z,25
2022-08-20T07:30:59.208Z,26
2022-08-20T07:31:59.286Z,26
2022-08-20T07:32:59.313Z,25
2022-08-20T07:33:59.818Z,25
2022-08-20T07:34:59.207Z,24
2022-08-20T07:35:59.322Z,23
2022-08-20T07:36:59.314Z,23
2022-08-20T07:37:59.212Z,24
2022-08-20T07:38:59.219Z,24
2022-08-20T07:39:59.301Z,23
2022-08-20T07:40:59.210Z,22
2022-08-20T07:41:59.254Z,24
2022-08-20T07:42:59.295Z,22
2022-08-20T07:43:59.379Z,23
2022-08-20T07:44:59.270Z,22
2022-08-20T07:45:59.278Z,23
2022-08-20T07:46:59.287Z,22
2022-08-20T07:47:59.308Z,20
2022-08-20T07:48:59.323Z,20
2022-08-20T07:49:59.294Z,22
2022-08-20T07:50:59.309Z,22
2022-08-20T07:51:59.320Z,21
2022-08-20T07:52:59.237Z,21
2022-08-20T07:53:59.207Z,21
2022-08-20T07:54:59.207Z,21
2022-08-20T07:55:59.603Z,21
2022-08-20T07:56:59.337Z,21
2022-08-20T07:57:59.373Z,20
2022-08-20T07:58:59.390Z,20
2022-08-20T07:59:59.255Z,21
2022-08-20T08:00:59.349Z,20
2022-08-20T08:01:59.293Z,21
2022-08-20T08:02:59.294Z,21
2022-08-20T08:03:59.308Z,22
2022-08-20T08:04:59.305Z,21
2022-08-20T08:05:59.298Z,22
2022-08-20T08:06:59.482Z,22
2022-08-20T08:07:59.365Z,23
2022-08-20T08:08:59.393Z,22
2022-08-20T08:09:59.513Z,22
2022-08-20T08:10:59.572Z,22
2022-08-20T08:11:59.332Z,21
2022-08-20T08:12:59.296Z,21
2022-08-20T08:13:59.268Z,22
2022-08-20T08:14:59.358Z,21
2022-08-20T08:15:59.264Z,21
2022-08-20T08:16:59.390Z,22
2022-08-20T08:17:59.292Z,20
2022-08-20T08:18:59.272Z,21
2022-08-20T08:19:59.229Z,22
2022-08-20T08:20:59.215Z,22
2022-08-20T08:21:59.245Z,21
2022-08-20T08:22:59.312Z,21
2022-08-20T08:23:59.319Z,21
2022-08-20T08:24:59.333Z,21
2022-08-20T08:25:59.323Z,22
2022-08-20T08:26:59.233Z,21
2022-08-20T08:27:59.361Z,21
2022-08-20T08:28:59.405Z,21
2022-08-20T08:29:59.252Z,22
2022-08-20T08:30:59.227Z,22
2022-08-20T08:31:59.271Z,23
2022-08-20T08:32:59.290Z,23
2022-08-20T08:33:59.271Z,22
2022-08-20T08:34:59.241Z,22
2022-08-20T08:35:59.199Z,21
2022-08-20T08:36:59.334Z,20
2022-08-20T08:37:59.329Z,20
2022-08-20T08:38:59.300Z,20
2022-08-20T08:39:59.407Z,20
2022-08-20T08:41:00.195Z,21
2022-08-20T08:41:59.221Z,21
2022-08-20T08:42:59.334Z,21
2022-08-20T08:43:59.218Z,20
2022-08-20T08:44:59.239Z,22
2022-08-20T08:45:59.351Z,21
2022-08-20T08:46:59.354Z,20
2022-08-20T08:47:59.221Z,20
2022-08-20T08:48:59.260Z,22
2022-08-20T08:49:59.283Z,22
2022-08-20T08:50:59.279Z,21
2022-08-20T08:51:59.278Z,22
2022-08-20T08:52:59.312Z,22
2022-08-20T08:54:03.348Z,23
2022-08-20T08:54:59.300Z,21
2022-08-20T08:55:59.305Z,23
2022-08-20T08:56:59.283Z,22
2022-08-20T08:57:59.751Z,21
2022-08-20T08:58:59.285Z,20
2022-08-20T09:00:04.289Z,19
2022-08-20T09:01:02.097Z,19
2022-08-20T09:01:59.375Z,18
2022-08-20T09:02:59.712Z,17
2022-08-20T09:03:59.263Z,18
2022-08-20T09:04:59.331Z,18
2022-08-20T09:05:59.382Z,17
2022-08-20T09:06:59.300Z,18
2022-08-20T09:07:59.286Z,19
2022-08-20T09:08:59.221Z,19
2022-08-20T09:09:59.314Z,18
2022-08-20T09:10:59.317Z,18
2022-08-20T09:11:59.211Z,19
2022-08-20T09:12:59.520Z,18
2022-08-20T09:13:59.275Z,19
2022-08-20T09:14:59.335Z,19
2022-08-20T09:15:59.246Z,19
2022-08-20T09:16:59.249Z,19
2022-08-20T09:17:59.403Z,18
2022-08-20T09:18:59.271Z,19
2022-08-20T09:19:59.278Z,18
2022-08-20T09:20:59.288Z,19
2022-08-20T09:21:59.282Z,18
2022-08-20T09:22:59.436Z,19
2022-08-20T09:23:59.310Z,18
2022-08-20T09:24:59.302Z,16
2022-08-20T09:25:59.218Z,17
2022-08-20T09:26:59.220Z,18
2022-08-20T09:27:59.340Z,18
2022-08-20T09:28:59.318Z,18
2022-08-20T09:29:59.323Z,18
2022-08-20T09:30:59.367Z,18
2022-08-20T09:31:59.231Z,18
2022-08-20T09:32:59.256Z,17
2022-08-20T09:33:59.231Z,17
2022-08-20T09:34:59.419Z,16
2022-08-20T09:35:59.372Z,17
2022-08-20T09:36:59.297Z,17
2022-08-20T09:37:59.544Z,16
2022-08-20T09:38:59.281Z,16
2022-08-20T09:39:59.452Z,16
2022-08-20T09:40:59.212Z,16
2022-08-20T09:41:59.268Z,16
2022-08-20T09:42:59.572Z,17
2022-08-20T09:43:59.249Z,17
2022-08-20T09:44:59.228Z,17
2022-08-20T09:45:59.224Z,17
2022-08-20T09:46:59.287Z,18
2022-08-20T09:47:59.448Z,17
2022-08-20T09:48:59.376Z,18
2022-08-20T09:49:59.382Z,20
2022-08-20T09:50:59.256Z,17
2022-08-20T09:51:59.213Z,19
2022-08-20T09:52:59.297Z,20
2022-08-20T09:53:59.269Z,20
2022-08-20T09:54:59.240Z,22
2022-08-20T09:55:59.457Z,24
2022-08-20T09:56:59.403Z,23
2022-08-20T09:57:59.247Z,22
2022-08-20T09:59:02.795Z,22
2022-08-20T09:59:59.319Z,24
2022-08-20T10:00:59.345Z,22
2022-08-20T10:01:59.368Z,21
2022-08-20T10:02:59.361Z,21
2022-08-20T10:03:59.347Z,18
2022-08-20T10:04:59.283Z,20
2022-08-20T10:05:59.469Z,19
2022-08-20T10:06:59.275Z,20
2022-08-20T10:07:59.366Z,19
2022-08-20T10:08:59.228Z,18
2022-08-20T10:09:59.416Z,18
2022-08-20T10:10:59.282Z,18
2022-08-20T10:11:59.287Z,17
2022-08-20T10:12:59.873Z,17
2022-08-20T10:13:59.333Z,17
2022-08-20T10:14:59.318Z,17
2022-08-20T10:15:59.311Z,17
2022-08-20T10:17:00.166Z,16
2022-08-20T10:17:59.447Z,17
2022-08-20T10:18:59.351Z,16
2022-08-20T10:19:59.268Z,14
2022-08-20T10:20:59.490Z,14
2022-08-20T10:21:59.221Z,15
2022-08-20T10:22:59.241Z,15
2022-08-20T10:23:59.380Z,16
2022-08-20T10:24:59.482Z,17
2022-08-20T10:25:59.269Z,17
2022-08-20T10:26:59.405Z,17
2022-08-20T10:27:59.407Z,17
2022-08-20T10:28:59.366Z,16
2022-08-20T10:29:59.304Z,16
2022-08-20T10:30:59.470Z,16
2022-08-20T10:31:59.637Z,15
2022-08-20T10:32:59.428Z,15
2022-08-20T10:33:59.564Z,14
2022-08-20T10:34:59.328Z,14
2022-08-20T10:36:00.141Z,14
2022-08-20T10:36:59.274Z,13
2022-08-20T10:37:59.460Z,12
2022-08-20T10:38:59.414Z,13
2022-08-20T10:39:59.502Z,12
2022-08-20T10:40:59.458Z,13
2022-08-20T10:41:59.464Z,14
2022-08-20T10:42:59.276Z,13
2022-08-20T10:43:59.239Z,13
2022-08-20T10:44:59.274Z,13
2022-08-20T10:45:59.320Z,13
2022-08-20T10:46:59.327Z,11
2022-08-20T10:47:59.276Z,11
2022-08-20T10:48:59.324Z,11
2022-08-20T10:49:59.330Z,12
2022-08-20T10:50:59.271Z,12
2022-08-20T10:51:59.448Z,12
2022-08-20T10:52:59.361Z,11
2022-08-20T10:53:59.290Z,11
2022-08-20T10:54:59.271Z,11
2022-08-20T10:55:59.289Z,11
2022-08-20T10:56:59.284Z,12
2022-08-20T10:57:59.269Z,11
2022-08-20T10:58:59.294Z,10
2022-08-20T10:59:59.280Z,10
2022-08-20T11:00:59.294Z,11
2022-08-20T11:01:59.349Z,11
2022-08-20T11:02:59.302Z,10
2022-08-20T11:03:59.237Z,10
2022-08-20T11:04:59.380Z,11
2022-08-20T11:05:59.347Z,10
2022-08-20T11:06:59.293Z,10
2022-08-20T11:07:59.236Z,11
2022-08-20T11:08:59.287Z,10
2022-08-20T11:09:59.355Z,10
2022-08-20T11:10:59.281Z,10
2022-08-20T11:11:59.268Z,10
2022-08-20T11:12:59.286Z,10
2022-08-20T11:13:59.389Z,10
2022-08-20T11:14:59.287Z,9
2022-08-20T11:15:59.273Z,10
2022-08-20T11:16:59.252Z,10
2022-08-20T11:17:59.416Z,10
2022-08-20T11:18:59.354Z,10
2022-08-20T11:19:59.340Z,11
2022-08-20T11:20:59.321Z,10
2022-08-20T11:21:59.255Z,10
2022-08-20T11:22:59.336Z,10
2022-08-20T11:24:02.723Z,10
2022-08-20T11:24:59.245Z,10
2022-08-20T11:25:59.243Z,10
2022-08-20T11:26:59.348Z,8
2022-08-20T11:27:59.434Z,8
2022-08-20T11:28:59.299Z,8
2022-08-20T11:29:59.281Z,8
2022-08-20T11:30:59.299Z,9
2022-08-20T11:31:59.286Z,8
2022-08-20T11:32:59.306Z,7
2022-08-20T11:33:59.413Z,7
2022-08-20T11:34:59.335Z,8
2022-08-20T11:35:59.239Z,8
2022-08-20T11:36:59.356Z,8
2022-08-20T11:37:59.381Z,7
2022-08-20T11:38:59.352Z,7
2022-08-20T11:39:59.420Z,6
2022-08-20T11:40:59.302Z,7
2022-08-20T11:41:59.348Z,7
2022-08-20T11:43:14.045Z,8
2022-08-20T11:44:20.390Z,7
2022-08-20T11:44:59.338Z,7
2022-08-20T11:45:59.269Z,6
2022-08-20T11:46:59.370Z,7
2022-08-20T11:47:59.399Z,7
2022-08-20T11:48:59.442Z,7
2022-08-20T11:49:59.314Z,6
2022-08-20T11:50:59.341Z,6
2022-08-20T11:51:59.323Z,7
2022-08-20T11:52:59.362Z,6
2022-08-20T11:53:59.359Z,7
2022-08-20T11:54:59.345Z,6
2022-08-20T11:55:59.341Z,5
2022-08-20T11:56:59.363Z,5
2022-08-20T11:58:00.495Z,6
2022-08-20T11:58:59.310Z,6
2022-08-20T11:59:59.240Z,6
2022-08-20T12:00:59.246Z,6
2022-08-20T12:02:03.057Z,5
2022-08-20T12:02:59.901Z,4
2022-08-20T12:03:59.299Z,5
2022-08-20T12:04:59.340Z,4
2022-08-20T12:05:59.298Z,4
2022-08-20T12:07:00.724Z,4
2022-08-20T12:07:59.313Z,4
2022-08-20T12:08:59.388Z,5
2022-08-20T12:09:59.373Z,4
2022-08-20T12:10:59.334Z,4
2022-08-20T12:11:59.354Z,5
2022-08-20T12:12:59.785Z,5
2022-08-20T12:13:59.385Z,4
2022-08-20T12:14:59.266Z,5
2022-08-20T12:15:59.367Z,5
2022-08-20T12:16:59.394Z,4
2022-08-20T12:17:59.272Z,4
2022-08-20T12:18:59.291Z,4
2022-08-20T12:19:59.406Z,4
2022-08-20T12:20:59.292Z,4
2022-08-20T12:21:59.295Z,4
2022-08-20T12:22:59.300Z,4
2022-08-20T12:23:59.427Z,5
2022-08-20T12:24:59.364Z,5
2022-08-20T12:25:59.345Z,6
2022-08-20T12:26:59.335Z,6
2022-08-20T12:27:59.243Z,6
2022-08-20T12:28:59.265Z,5
2022-08-20T12:29:59.392Z,5
2022-08-20T12:30:59.352Z,5
2022-08-20T12:31:59.268Z,5
2022-08-20T12:32:59.265Z,5
2022-08-20T12:33:59.300Z,5
2022-08-20T12:34:59.294Z,5
2022-08-20T12:35:59.288Z,5
2022-08-20T12:36:59.322Z,6
2022-08-20T12:37:59.291Z,5
2022-08-20T12:38:59.316Z,5
2022-08-20T12:39:59.406Z,6
2022-08-20T12:40:59.311Z,6
2022-08-20T12:41:59.329Z,6
2022-08-20T12:42:59.254Z,7
2022-08-20T12:43:59.356Z,7
2022-08-20T12:44:59.335Z,7
2022-08-20T12:45:59.390Z,7
2022-08-20T12:46:59.359Z,7
2022-08-20T12:47:59.364Z,7
2022-08-20T12:48:59.287Z,7
2022-08-20T12:49:59.293Z,6
2022-08-20T12:50:59.303Z,7
2022-08-20T12:51:59.311Z,7
2022-08-20T12:52:59.363Z,7
2022-08-20T12:53:59.321Z,7
2022-08-20T12:54:59.247Z,7
2022-08-20T12:55:59.274Z,6
2022-08-20T12:56:59.339Z,7
2022-08-20T12:57:59.350Z,6
2022-08-20T12:58:59.352Z,7
2022-08-20T12:59:59.343Z,7
2022-08-20T13:00:59.400Z,7
2022-08-20T13:01:59.374Z,6
2022-08-20T13:02:59.419Z,6
2022-08-20T13:03:59.267Z,6
2022-08-20T13:05:04.555Z,7
2022-08-20T13:05:59.378Z,6
2022-08-20T13:06:59.284Z,6
2022-08-20T13:07:59.264Z,5
2022-08-20T13:08:59.258Z,6
2022-08-20T13:09:59.305Z,6
2022-08-20T13:10:59.263Z,6
2022-08-20T13:11:59.316Z,6
2022-08-20T13:12:59.334Z,6
2022-08-20T13:13:59.281Z,6
2022-08-20T13:14:59.273Z,6
2022-08-20T13:15:59.341Z,7
2022-08-20T13:17:00.834Z,7
2022-08-20T13:17:59.367Z,7
2022-08-20T13:18:59.372Z,7
2022-08-20T13:19:59.383Z,7
2022-08-20T13:20:59.286Z,7
2022-08-20T13:21:59.381Z,6
2022-08-20T13:22:59.389Z,7
2022-08-20T13:23:59.291Z,7
2022-08-20T13:24:59.289Z,6
2022-08-20T13:25:59.837Z,6
2022-08-20T13:26:59.318Z,7
2022-08-20T13:27:59.260Z,7
2022-08-20T13:28:59.445Z,7
2022-08-20T13:29:59.455Z,7
2022-08-20T13:30:59.341Z,6
2022-08-20T13:31:59.339Z,7
2022-08-20T13:32:59.342Z,6
2022-08-20T13:33:59.430Z,7
2022-08-20T13:34:59.309Z,7
2022-08-20T13:35:59.254Z,7
2022-08-20T13:36:59.274Z,7
2022-08-20T13:37:59.298Z,7
2022-08-20T13:38:59.408Z,8
2022-08-20T13:39:59.376Z,7
2022-08-20T13:40:59.409Z,8
2022-08-20T13:41:59.333Z,8
2022-08-20T13:43:01.251Z,7
2022-08-20T13:43:59.334Z,7
2022-08-20T13:44:59.266Z,8
2022-08-20T13:45:59.334Z,8
2022-08-20T13:46:59.328Z,8
2022-08-20T13:47:59.318Z,8
2022-08-20T13:48:59.365Z,7
2022-08-20T13:49:59.528Z,7
2022-08-20T13:50:59.270Z,7
2022-08-20T13:51:59.265Z,7
2022-08-20T13:52:59.425Z,7
2022-08-20T13:53:59.391Z,7
2022-08-20T13:54:59.383Z,7
2022-08-20T13:55:59.281Z,6
2022-08-20T13:56:59.298Z,5
2022-08-20T13:57:59.296Z,6
2022-08-20T13:58:59.293Z,5
2022-08-20T13:59:59.318Z,5
2022-08-20T14:00:59.459Z,5
2022-08-20T14:02:01.871Z,5
2022-08-20T14:02:59.362Z,6
2022-08-20T14:03:59.281Z,5
2022-08-20T14:04:59.311Z,5
2022-08-20T14:05:59.360Z,5
2022-08-20T14:06:59.384Z,6
2022-08-20T14:07:59.377Z,6
2022-08-20T14:08:59.458Z,6
2022-08-20T14:09:59.390Z,6
2022-08-20T14:10:59.298Z,6
2022-08-20T14:11:59.289Z,6
2022-08-20T14:12:59.300Z,6
2022-08-20T14:13:59.324Z,6
2022-08-20T14:14:59.324Z,6
2022-08-20T14:15:59.322Z,6
2022-08-20T14:16:59.280Z,6
2022-08-20T14:17:59.293Z,6
2022-08-20T14:18:59.359Z,6
2022-08-20T14:20:01.365Z,7
2022-08-20T14:20:59.615Z,6
2022-08-20T14:21:59.641Z,6
2022-08-20T14:22:59.364Z,6
2022-08-20T14:23:59.682Z,6
2022-08-20T14:24:59.625Z,7
2022-08-20T14:25:59.410Z,6
2022-08-20T14:26:59.297Z,7
2022-08-20T14:27:59.287Z,6
2022-08-20T14:28:59.339Z,6
2022-08-20T14:29:59.418Z,6